Time;durP1;ratioP1;P1;durP2;ratioP2;P2;SDS_P1;SDS_P2;PMS_P1;PMS_P2;Temp;Humidity;BMP_temperature;BMP_pressure;BME280_temperature;BME280_humidity;BME280_pressure;Samples;Min_cycle;Max_cycle;Signal;HPM_P1;HPM_P2
2022/03/22 00:00:09;;;;;;;12.15;10.52;;;3.80;68.40;;;;;;5073077;28;20193;-88
2022/03/22 00:02:36;;;;;;;13.88;11.60;;;;;;;;;;5072852;28;20199;-88
2022/03/22 00:05:04;;;;;;;17.55;12.27;;;3.90;61.30;;;;;;5072740;28;20195;-89
2022/03/22 00:07:32;;;;;;;13.32;11.23;;;3.90;55.60;;;;;;5073527;28;20195;-88
2022/03/22 00:09:58;;;;;;;16.95;12.00;;;3.60;67.60;;;;;;5069545;28;20223;-88
2022/03/22 00:12:26;;;;;;;14.40;11.50;;;3.80;56.20;;;;;;5072970;28;20707;-89
2022/03/22 00:14:53;;;;;;;15.60;11.60;;;4.00;56.70;;;;;;5071423;28;20195;-88
2022/03/22 00:17:23;;;;;;;16.98;11.85;;;3.50;62.40;;;;;;5072800;28;20222;-88
2022/03/22 00:19:49;;;;;;;17.10;12.23;;;3.60;56.80;;;;;;5073416;28;20260;-88
2022/03/22 00:22:16;;;;;;;15.32;11.65;;;3.80;56.70;;;;;;5072374;28;20670;-89
2022/03/22 00:24:43;;;;;;;21.25;14.48;;;3.60;57.30;;;;;;5073395;28;20592;-89
2022/03/22 00:27:10;;;;;;;17.92;11.48;;;3.40;64.10;;;;;;5072193;28;20196;-88
2022/03/22 00:29:37;;;;;;;22.08;14.52;;;3.30;57.70;;;;;;5072107;28;20195;-88
2022/03/22 00:32:08;;;;;;;15.77;12.55;;;3.60;64.00;;;;;;5071357;28;20222;-88
2022/03/22 00:34:44;;;;;;;18.98;12.27;;;3.40;72.60;;;;;;5072683;28;20230;-89
2022/03/22 00:37:13;;;;;;;18.52;13.00;;;3.40;57.50;;;;;;5072304;28;20206;-90
2022/03/22 00:39:41;;;;;;;17.65;13.10;;;3.60;65.30;;;;;;5071883;28;20700;-88
2022/03/22 00:42:08;;;;;;;18.88;12.00;;;3.70;58.50;;;;;;5070793;28;20211;-88
2022/03/22 00:44:35;;;;;;;17.80;11.82;;;3.30;72.40;;;;;;5075607;28;20199;-87
2022/03/22 00:47:02;;;;;;;14.15;10.82;;;3.40;58.00;;;;;;5079285;28;20203;-87
2022/03/22 00:49:30;;;;;;;16.77;12.48;;;3.50;71.60;;;;;;5074934;28;20191;-88
2022/03/22 00:51:59;;;;;;;18.20;11.90;;;3.40;57.80;;;;;;5072267;28;20648;-90
2022/03/22 00:54:26;;;;;;;17.75;12.57;;;3.90;58.50;;;;;;5072301;28;20294;-88
2022/03/22 00:56:54;;;;;;;16.45;11.25;;;3.40;64.50;;;;;;5070660;28;20217;-88
2022/03/22 01:02:05;;;;;;;20.05;12.75;;;3.40;58.10;;;;;;5071602;28;20215;-88
2022/03/22 01:04:32;;;;;;;15.90;13.38;;;3.30;58.80;;;;;;5067982;28;20219;-88
2022/03/22 01:07:00;;;;;;;14.70;11.45;;;3.30;74.90;;;;;;5071109;28;20184;-89
2022/03/22 01:09:28;;;;;;;17.60;12.77;;;3.10;66.50;;;;;;5068029;28;20670;-89
2022/03/22 01:11:57;;;;;;;17.42;12.55;;;3.20;58.20;;;;;;5070998;28;20704;-89
2022/03/22 01:14:28;;;;;;;16.50;12.32;;;3.40;58.30;;;;;;5071865;28;20229;-88
2022/03/22 01:16:56;;;;;;;19.15;13.32;;;3.20;58.40;;;;;;5071867;28;20207;-88
2022/03/22 01:19:23;;;;;;;13.05;11.00;;;4.00;58.90;;;;;;5071552;28;20234;-88
2022/03/22 01:21:51;;;;;;;16.50;12.88;;;3.30;73.30;;;;;;5071315;28;20640;-88
2022/03/22 01:24:20;;;;;;;15.60;11.95;;;3.30;73.10;;;;;;5070899;28;21906;-89
2022/03/22 01:26:48;;;;;;;16.58;12.13;;;3.30;58.10;;;;;;5070136;28;20191;-89
2022/03/22 01:29:16;;;;;;;16.38;12.45;;;3.20;72.00;;;;;;5071342;28;20294;-89
2022/03/22 01:31:44;;;;;;;13.57;11.93;;;3.20;73.10;;;;;;5070183;28;20219;-89
2022/03/22 01:34:12;;;;;;;16.80;11.95;;;3.00;72.80;;;;;;5070900;28;20705;-89
2022/03/22 01:36:41;;;;;;;17.20;11.85;;;3.00;72.00;;;;;;5070739;28;20285;-87
2022/03/22 01:39:08;;;;;;;17.38;12.50;;;3.20;58.40;;;;;;5071132;28;20203;-88
2022/03/22 01:41:36;;;;;;;20.35;13.02;;;3.20;64.60;;;;;;5070599;28;20273;-88
2022/03/22 01:44:03;;;;;;;17.20;11.40;;;3.10;58.40;;;;;;5071375;28;20195;-88
2022/03/22 01:46:30;;;;;;;17.30;12.77;;;3.20;58.50;;;;;;5070231;28;20187;-88
2022/03/22 01:48:58;;;;;;;13.82;11.18;;;3.10;64.80;;;;;;5070109;28;20191;-88
2022/03/22 01:51:24;;;;;;;16.90;12.10;;;3.20;73.90;;;;;;5056510;28;20220;-89
2022/03/22 01:53:52;;;;;;;22.23;12.55;;;3.00;73.10;;;;;;5070673;28;20203;-88
2022/03/22 01:56:19;;;;;;;18.48;12.88;;;3.10;75.00;;;;;;5070362;28;20195;-89
2022/03/22 01:58:48;;;;;;;19.45;12.65;;;2.90;67.20;;;;;;5067341;28;20203;-88
2022/03/22 02:06:55;;;;;;;17.50;12.77;;;3.00;58.60;;;;;;5063641;28;20207;-90
2022/03/22 02:09:22;;;;;;;17.05;13.57;;;3.00;58.80;;;;;;5066125;28;20196;-89
2022/03/22 02:11:51;;;;;;;17.50;11.23;;;;;;;;;;5071035;28;20689;-87
2022/03/22 02:14:20;;;;;;;16.73;11.93;;;2.90;70.10;;;;;;5070709;28;20646;-87
2022/03/22 02:16:46;;;;;;;15.80;13.43;;;2.90;59.60;;;;;;5071373;28;20199;-89
2022/03/22 02:19:16;;;;;;;19.58;14.15;;;2.90;78.00;;;;;;5070889;28;20198;-90
2022/03/22 02:21:44;;;;;;;17.20;13.23;;;2.80;61.70;;;;;;5071015;28;20257;-89
2022/03/22 02:24:13;;;;;;;17.52;13.57;;;2.80;77.10;;;;;;5071063;28;20203;-89
2022/03/22 02:26:40;;;;;;;17.35;13.52;;;2.90;75.40;;;;;;5070769;28;20192;-89
2022/03/22 02:29:07;;;;;;;21.60;12.20;;;2.90;60.00;;;;;;5070113;28;20199;-89
2022/03/22 02:31:34;;;;;;;19.48;13.10;;;3.00;68.40;;;;;;5068355;28;20231;-89
2022/03/22 02:34:03;;;;;;;18.13;12.20;;;2.80;59.90;;;;;;5071174;28;20227;-89
2022/03/22 02:36:30;;;;;;;18.45;13.85;;;2.80;59.90;;;;;;5071189;28;20226;-89
2022/03/22 02:38:58;;;;;;;17.75;12.65;;;2.50;77.70;;;;;;5072712;28;20198;-89
2022/03/22 02:41:26;;;;;;;19.38;13.95;;;2.60;65.30;;;;;;5067360;28;20252;-88
2022/03/22 02:43:54;;;;;;;18.63;14.07;;;2.40;77.90;;;;;;5070788;28;20296;-89
2022/03/22 02:46:22;;;;;;;18.73;13.77;;;2.60;62.90;;;;;;5072664;28;20287;-88
2022/03/22 02:48:49;;;;;;;20.88;14.23;;;2.60;62.00;;;;;;5074792;28;20195;-89
2022/03/22 02:51:17;;;;;;;16.10;13.05;;;2.50;62.20;;;;;;5073828;28;20689;-89
2022/03/22 02:53:44;;;;;;;19.67;14.02;;;2.10;77.90;;;;;;5071259;28;20203;-88
2022/03/22 02:56:11;;;;;;;18.08;13.20;;;2.60;62.90;;;;;;5073022;28;20257;-88
2022/03/22 02:58:40;;;;;;;16.42;13.65;;;2.80;76.20;;;;;;5073981;28;20237;-89
2022/03/22 03:01:07;;;;;;;19.40;13.13;;;2.90;68.00;;;;;;5073624;28;20249;-88
2022/03/22 03:03:34;;;;;;;18.80;12.73;;;3.80;61.60;;;;;;5073760;28;20199;-88
2022/03/22 03:06:01;;;;;;;16.90;12.32;;;2.50;68.70;;;;;;5073814;28;20199;-88
2022/03/22 03:08:28;;;;;;;16.50;13.82;;;2.70;62.30;;;;;;5074375;28;20200;-89
2022/03/22 03:10:55;;;;;;;16.50;11.95;;;2.70;63.00;;;;;;5072978;28;20779;-87
2022/03/22 03:13:22;;;;;;;18.27;12.23;;;2.80;60.70;;;;;;5074234;28;20196;-88
2022/03/22 03:15:52;;;;;;;16.85;12.30;;;2.80;60.10;;;;;;5073614;28;20617;-88
2022/03/22 03:18:19;;;;;;;17.38;12.20;;;2.70;60.00;;;;;;5073721;28;20283;-89
2022/03/22 03:20:46;;;;;;;15.27;11.60;;;2.70;77.60;;;;;;5073401;28;20234;-89
2022/03/22 03:23:13;;;;;;;15.57;12.50;;;2.60;60.60;;;;;;5074209;28;20662;-89
2022/03/22 03:25:40;;;;;;;18.17;14.38;;;2.60;61.60;;;;;;5073255;28;20210;-88
2022/03/22 03:28:06;;;;;;;16.92;12.40;;;2.60;61.80;;;;;;5072505;28;20191;-88
2022/03/22 03:30:34;;;;;;;17.40;12.32;;;4.50;64.40;;;;;;5072276;28;20337;-88
2022/03/22 03:33:03;;;;;;;14.20;12.43;;;2.60;61.40;;;;;;5073343;28;20215;-88
2022/03/22 03:35:30;;;;;;;18.45;12.80;;;2.80;61.00;;;;;;5073820;28;20290;-88
2022/03/22 03:37:58;;;;;;;17.33;11.70;;;2.60;61.40;;;;;;5073588;28;20191;-88
2022/03/22 03:41:53;;;;;;;18.70;13.32;;;2.60;61.00;;;;;;5073632;28;20238;-88
2022/03/22 03:43:12;;;;;;;18.98;13.70;;;2.80;76.70;;;;;;5073896;28;20286;-87
2022/03/22 03:48:25;;;;;;;21.05;12.82;;;2.60;77.20;;;;;;5074421;28;20707;-88
2022/03/22 03:50:52;;;;;;;14.88;12.02;;;2.60;61.30;;;;;;5072174;28;20195;-88
2022/03/22 03:53:18;;;;;;;17.67;12.02;;;2.70;73.30;;;;;;5073207;28;20280;-89
2022/03/22 03:55:45;;;;;;;20.25;12.60;;;2.80;67.30;;;;;;5073092;28;20191;-88
2022/03/22 03:58:12;;;;;;;18.83;13.65;;;2.50;67.00;;;;;;5072581;28;20200;-88
2022/03/22 04:00:39;;;;;;;15.95;12.43;;;2.50;76.00;;;;;;5072382;28;20566;-88
2022/03/22 04:03:06;;;;;;;16.30;12.00;;;2.60;61.70;;;;;;5071274;28;20249;-88
2022/03/22 04:05:34;;;;;;;15.95;12.35;;;2.40;62.70;;;;;;5066890;28;20708;-88
2022/03/22 04:08:01;;;;;;;19.08;13.85;;;2.30;63.50;;;;;;5072369;28;20619;-88
2022/03/22 04:10:29;;;;;;;16.98;12.48;;;2.50;79.20;;;;;;5072213;28;20191;-88
2022/03/22 04:12:56;;;;;;;18.98;12.30;;;2.90;78.40;;;;;;5071852;28;20213;-88
2022/03/22 04:15:25;;;;;;;18.83;13.40;;;2.40;63.50;;;;;;5071354;28;20187;-88
2022/03/22 04:17:52;;;;;;;20.55;15.77;;;2.50;62.60;;;;;;5072823;28;20209;-87
2022/03/22 04:20:21;;;;;;;16.98;11.50;;;2.40;70.90;;;;;;5072078;28;20194;-88
2022/03/22 04:22:51;;;;;;;20.00;14.50;;;2.30;63.90;;;;;;5072277;28;20697;-88
2022/03/22 04:25:18;;;;;;;17.42;13.52;;;;;;;;;;5071006;28;20195;-88
2022/03/22 04:33:14;;;;;;;18.75;13.70;;;2.30;78.90;;;;;;5071767;28;20242;-88
2022/03/22 04:35:41;;;;;;;16.95;14.55;;;2.00;78.60;;;;;;5071408;28;20207;-88
2022/03/22 04:38:09;;;;;;;23.52;13.60;;;2.30;63.70;;;;;;5072739;28;20286;-88
2022/03/22 04:40:40;;;;;;;17.05;11.85;;;2.30;64.60;;;;;;5069783;28;20233;-88
2022/03/22 04:43:07;;;;;;;19.35;12.93;;;2.40;71.20;;;;;;5073156;28;20207;-87
2022/03/22 04:45:35;;;;;;;17.75;13.20;;;2.40;64.80;;;;;;5067761;28;20191;-89
2022/03/22 04:48:02;;;;;;;20.65;14.13;;;;;;;;;;5071892;28;20234;-88
2022/03/22 04:50:29;;;;;;;20.10;12.93;;;1.80;63.30;;;;;;5071654;28;20650;-88
2022/03/22 04:58:26;;;;;;;16.80;11.98;;;2.00;70.40;;;;;;5071217;28;20675;-88
2022/03/22 05:00:53;;;;;;;20.02;12.65;;;1.80;78.00;;;;;;5071144;28;20276;-88
2022/03/22 05:03:20;;;;;;;20.48;12.85;;;1.50;70.00;;;;;;5068571;28;20184;-88
2022/03/22 05:08:32;;;;;;;16.80;12.85;;;1.90;64.40;;;;;;5069799;28;20238;-87
2022/03/22 05:11:01;;;;;;;20.77;15.07;;;1.90;79.30;;;;;;5070894;28;20638;-86
2022/03/22 05:13:27;;;;;;;22.33;15.27;;;1.90;63.80;;;;;;5071016;28;20227;-88
2022/03/22 05:15:54;;;;;;;22.90;15.82;;;2.30;63.70;;;;;;5071005;28;20260;-88
2022/03/22 05:18:21;;;;;;;20.52;15.32;;;1.90;63.40;;;;;;5071131;28;20209;-88
2022/03/22 05:20:48;;;;;;;21.67;13.88;;;1.70;78.40;;;;;;5070930;28;20266;-88
2022/03/22 05:23:17;;;;;;;18.42;13.43;;;1.80;63.80;;;;;;5071521;28;20553;-87
2022/03/22 05:25:44;;;;;;;16.92;13.68;;;1.70;73.90;;;;;;5070374;28;20321;-88
2022/03/22 05:28:13;;;;;;;23.33;13.90;;;1.90;79.60;;;;;;5070122;28;20199;-88
2022/03/22 05:30:40;;;;;;;22.30;13.57;;;1.70;70.80;;;;;;5069270;28;20238;-88
2022/03/22 05:33:07;;;;;;;18.42;13.65;;;1.90;63.90;;;;;;5071165;28;20697;-88
2022/03/22 05:35:33;;;;;;;24.30;15.40;;;1.90;64.70;;;;;;5067586;28;20199;-87
2022/03/22 05:38:00;;;;;;;30.50;15.43;;;1.60;81.80;;;;;;5070190;28;20192;-87
2022/03/22 05:40:27;;;;;;;18.73;14.20;;;1.50;80.60;;;;;;5062077;28;20215;-88
2022/03/22 05:42:54;;;;;;;20.10;15.20;;;;;;;;;;5070307;28;20195;-88
2022/03/22 05:45:28;;;;;;;21.50;14.60;;;1.60;82.10;;;;;;5065485;28;20256;-87
2022/03/22 05:47:56;;;;;;;20.70;13.90;;;1.90;83.60;;;;;;5061857;28;20550;-88
2022/03/22 05:50:23;;;;;;;23.15;15.25;;;2.10;83.90;;;;;;5064941;28;20629;-88
2022/03/22 05:52:50;;;;;;;27.52;17.83;;;1.80;83.10;;;;;;5063760;28;20733;-87
2022/03/22 05:55:17;;;;;;;23.30;16.75;;;1.90;66.20;;;;;;5056322;28;20483;-86
2022/03/22 05:57:44;;;;;;;28.73;16.15;;;2.00;66.80;;;;;;5062657;28;20203;-85
2022/03/22 06:00:13;;;;;;;18.50;14.55;;;1.50;80.30;;;;;;5068532;28;20557;-86
2022/03/22 06:02:42;;;;;;;24.50;16.50;;;2.20;80.60;;;;;;5065727;28;20219;-86
2022/03/22 06:05:11;;;;;;;19.67;14.52;;;2.10;82.30;;;;;;5062889;28;20188;-86
2022/03/22 06:07:39;;;;;;;21.17;14.15;;;2.10;66.00;;;;;;5070926;28;20203;-86
2022/03/22 06:10:07;;;;;;;20.88;15.63;;;2.20;78.20;;;;;;5069566;28;20191;-86
2022/03/22 06:12:40;;;;;;;21.13;14.73;;;2.10;65.00;;;;;;5073174;28;20223;-86
2022/03/22 06:15:18;;;;;;;17.92;15.05;;;2.10;73.00;;;;;;5073700;28;20191;-85
2022/03/22 06:17:49;;;;;;;20.02;14.80;;;2.40;74.20;;;;;;5058182;28;20555;-86
2022/03/22 06:20:17;;;;;;;18.00;13.82;;;2.40;66.50;;;;;;5074075;28;20207;-86
2022/03/22 06:22:45;;;;;;;21.08;14.50;;;2.40;66.10;;;;;;5074169;28;20609;-86
2022/03/22 06:25:13;;;;;;;18.20;14.05;;;3.20;65.70;;;;;;5073755;28;20206;-86
2022/03/22 06:27:40;;;;;;;21.88;17.05;;;2.60;64.80;;;;;;5071456;28;20727;-86
2022/03/22 06:30:10;;;;;;;24.25;16.00;;;2.50;78.90;;;;;;5072802;28;20191;-86
2022/03/22 06:32:41;;;;;;;23.77;15.73;;;3.10;78.60;;;;;;5071970;28;20215;-85
2022/03/22 06:35:11;;;;;;;23.75;16.10;;;3.10;63.90;;;;;;5068116;28;20252;-85
2022/03/22 06:37:37;;;;;;;25.77;19.67;;;3.10;63.70;;;;;;5070077;28;20228;-85
2022/03/22 06:40:06;;;;;;;28.98;17.65;;;3.10;77.80;;;;;;5070503;28;20188;-85
2022/03/22 06:42:33;;;;;;;18.88;15.98;;;3.20;64.30;;;;;;5064820;28;20194;-85
2022/03/22 06:45:00;;;;;;;20.60;15.82;;;3.10;79.20;;;;;;5072013;28;20249;-86
2022/03/22 06:47:27;;;;;;;22.45;16.08;;;3.20;64.40;;;;;;5073254;28;20268;-85
2022/03/22 06:49:54;;;;;;;26.35;16.02;;;3.30;64.30;;;;;;5063802;28;20242;-85
2022/03/22 06:52:22;;;;;;;24.88;15.52;;;3.30;68.40;;;;;;5071655;28;20246;-86
2022/03/22 06:54:49;;;;;;;21.88;14.00;;;4.10;69.30;;;;;;5067599;28;20601;-86
2022/03/22 06:57:16;;;;;;;21.33;14.85;;;3.60;67.30;;;;;;5060870;28;20199;-86
2022/03/22 06:59:43;;;;;;;19.42;15.07;;;3.70;62.00;;;;;;5070842;28;20251;-85
2022/03/22 07:02:10;;;;;;;22.55;14.45;;;3.90;62.10;;;;;;5074192;28;20192;-85
2022/03/22 07:04:37;;;;;;;26.95;15.95;;;3.90;62.60;;;;;;5073951;28;20252;-86
2022/03/22 07:07:04;;;;;;;21.55;16.38;;;3.90;73.00;;;;;;5067519;28;20207;-86
2022/03/22 07:09:33;;;;;;;24.80;16.05;;;4.30;61.20;;;;;;5069401;28;20589;-85
2022/03/22 07:12:00;;;;;;;25.40;15.02;;;4.40;74.60;;;;;;5071772;28;20222;-85
2022/03/22 07:14:28;;;;;;;24.67;15.73;;;4.50;60.90;;;;;;5067647;28;20195;-86
2022/03/22 07:16:56;;;;;;;23.02;16.00;;;4.90;74.60;;;;;;5069374;28;20269;-86
2022/03/22 07:19:24;;;;;;;26.30;17.73;;;5.00;76.30;;;;;;5068654;28;20279;-86
2022/03/22 07:21:51;;;;;;;33.38;15.68;;;5.30;71.00;;;;;;5071130;28;20596;-86
2022/03/22 07:24:19;;;;;;;21.80;14.48;;;5.30;59.50;;;;;;5068103;28;20192;-86
2022/03/22 07:26:48;;;;;;;18.50;14.52;;;5.80;73.50;;;;;;5070567;28;20191;-86
2022/03/22 07:29:17;;;;;;;18.73;14.15;;;5.80;61.70;;;;;;5070982;28;20211;-85
2022/03/22 07:31:46;;;;;;;17.75;14.45;;;5.50;71.00;;;;;;5069322;28;20192;-86
2022/03/22 07:34:19;;;;;;;19.85;16.23;;;6.00;72.20;;;;;;5064532;28;21651;-87
2022/03/22 07:36:46;;;;;;;20.38;14.70;;;5.80;58.10;;;;;;5071559;28;20700;-87
2022/03/22 07:39:15;;;;;;;23.33;15.50;;;6.20;72.60;;;;;;5071584;28;20211;-87
2022/03/22 07:41:47;;;;;;;21.55;15.85;;;6.50;67.40;;;;;;5072443;28;20184;-87
2022/03/22 07:44:15;;;;;;;25.75;14.90;;;6.40;61.90;;;;;;5071265;28;20257;-87
2022/03/22 07:46:42;;;;;;;24.70;14.77;;;6.50;58.00;;;;;;5069685;28;20199;-87
2022/03/22 07:54:46;;;;;;;20.98;15.00;;;6.80;68.10;;;;;;5017538;28;20272;-87
2022/03/22 07:57:15;;;;;;;20.90;15.57;;;6.90;57.10;;;;;;5068105;28;20637;-88
2022/03/22 07:59:42;;;;;;;20.55;15.68;;;7.10;63.90;;;;;;5067151;28;20646;-86
2022/03/22 08:02:08;;;;;;;26.98;15.50;;;7.10;63.30;;;;;;5071748;28;20199;-87
2022/03/22 08:04:35;;;;;;;25.42;15.63;;;7.40;58.00;;;;;;5070444;28;20284;-87
2022/03/22 08:07:02;;;;;;;25.30;16.48;;;7.40;56.40;;;;;;5064186;28;20237;-87
2022/03/22 08:09:29;;;;;;;21.60;16.50;;;7.60;56.20;;;;;;5071188;28;20689;-88
2022/03/22 08:11:56;;;;;;;20.63;15.98;;;7.50;55.80;;;;;;5072058;28;20202;-87
2022/03/22 08:14:24;;;;;;;21.85;15.90;;;7.90;58.30;;;;;;5066248;28;20615;-87
2022/03/22 08:16:54;;;;;;;28.70;17.00;;;7.90;54.70;;;;;;5070641;28;20596;-87
2022/03/22 08:19:21;;;;;;;22.60;16.20;;;7.90;55.10;;;;;;5052309;28;20202;-87
2022/03/22 08:21:49;;;;;;;23.75;15.05;;;7.90;56.90;;;;;;5068331;28;20207;-88
2022/03/22 08:24:16;;;;;;;23.88;16.25;;;8.10;54.60;;;;;;5071336;28;20292;-87
2022/03/22 08:26:44;;;;;;;25.17;16.35;;;8.30;53.30;;;;;;5070682;28;20214;-87
2022/03/22 08:29:13;;;;;;;21.33;15.93;;;8.70;61.90;;;;;;5071003;28;20314;-87
2022/03/22 08:31:41;;;;;;;21.13;15.75;;;8.10;53.30;;;;;;5071237;28;20194;-87
2022/03/22 08:34:08;;;;;;;24.15;16.35;;;8.20;53.60;;;;;;5070995;28;20274;-87
2022/03/22 08:36:35;;;;;;;20.92;15.55;;;8.40;55.90;;;;;;5062915;28;20223;-86
2022/03/22 08:39:04;;;;;;;23.38;16.58;;;8.50;53.30;;;;;;5069370;28;20258;-87
2022/03/22 08:41:35;;;;;;;21.35;14.40;;;8.60;60.00;;;;;;5070851;28;20195;-86
2022/03/22 08:44:02;;;;;;;22.42;16.88;;;8.50;51.90;;;;;;5070851;28;20299;-87
2022/03/22 08:46:32;;;;;;;20.27;15.70;;;8.90;63.70;;;;;;5070550;28;20221;-87
2022/03/22 08:49:10;;;;;;;26.90;16.20;;;8.90;54.10;;;;;;5071117;28;20205;-86
2022/03/22 08:51:49;;;;;;;22.92;15.45;;;9.50;54.80;;;;;;5070746;28;20292;-88
2022/03/22 08:54:19;;;;;;;18.17;16.13;;;9.50;58.80;;;;;;5052570;28;20315;-87
2022/03/22 08:56:46;;;;;;;20.98;14.15;;;9.50;52.80;;;;;;5066468;28;20201;-87
2022/03/22 08:59:13;;;;;;;20.97;15.13;;;9.70;51.90;;;;;;5070891;28;20274;-87
2022/03/22 09:01:40;;;;;;;23.40;15.90;;;9.60;51.40;;;;;;5070921;28;20659;-88
2022/03/22 09:07:03;;;;;;;24.37;16.27;;;9.80;51.80;;;;;;5063616;28;21183;-89
2022/03/22 09:09:32;;;;;;;17.80;14.83;;;10.00;50.50;;;;;;5061835;28;20623;-88
2022/03/22 09:11:59;;;;;;;22.57;16.87;;;9.90;51.60;;;;;;5068871;28;20656;-89
2022/03/22 09:14:27;;;;;;;23.50;16.73;;;10.10;50.90;;;;;;5067333;28;20730;-89
2022/03/22 09:16:54;;;;;;;18.70;15.40;;;10.30;52.50;;;;;;5064399;28;20715;-90
2022/03/22 09:19:22;;;;;;;24.17;15.50;;;10.30;51.20;;;;;;5070462;28;20631;-89
2022/03/22 09:21:49;;;;;;;23.10;14.93;;;10.50;54.80;;;;;;5069917;28;20621;-91
2022/03/22 09:24:16;;;;;;;23.03;16.73;;;10.30;50.00;;;;;;5069596;28;20621;-90
2022/03/22 09:26:45;;;;;;;18.23;15.00;;;10.40;50.90;;;;;;5069025;28;20649;-89
2022/03/22 09:29:12;;;;;;;23.10;15.33;;;10.60;55.90;;;;;;5067495;28;20645;-89
2022/03/22 09:31:40;;;;;;;17.17;15.33;;;10.60;56.00;;;;;;5069559;28;20679;-89
2022/03/22 09:34:08;;;;;;;20.37;14.83;;;10.90;56.70;;;;;;5069099;28;20668;-89
2022/03/22 09:36:39;;;;;;;18.27;14.13;;;10.90;51.30;;;;;;5070591;28;20728;-89
2022/03/22 09:39:06;;;;;;;20.17;15.50;;;10.80;56.00;;;;;;5070607;28;20663;-89
2022/03/22 09:41:38;;;;;;;23.93;15.40;;;10.90;53.90;;;;;;5066551;28;20610;-89
2022/03/22 09:44:05;;;;;;;18.50;15.50;;;11.50;51.50;;;;;;5062952;28;20660;-89
2022/03/22 09:46:33;;;;;;;19.73;14.50;;;11.20;50.50;;;;;;5045011;28;20631;-88
2022/03/22 09:49:00;;;;;;;21.17;15.80;;;11.50;55.50;;;;;;5051266;28;20638;-89
2022/03/22 09:54:15;;;;;;;18.60;14.77;;;11.20;54.20;;;;;;5067487;28;20713;-92
2022/03/22 09:56:43;;;;;;;21.87;14.73;;;11.30;48.70;;;;;;5066081;28;20690;-90
2022/03/22 09:59:10;;;;;;;23.17;15.60;;;11.60;54.20;;;;;;5069835;28;20621;-89
2022/03/22 10:01:37;;;;;;;19.43;13.60;;;11.60;47.90;;;;;;5071951;28;20671;-89
2022/03/22 10:04:26;;;;;;;19.70;14.67;;;11.80;48.30;;;;;;5069098;28;21383;-93
2022/03/22 10:06:57;;;;;;;16.37;13.90;;;;;;;;;;5061012;28;21164;-90
2022/03/22 10:09:30;;;;;;;17.87;13.93;;;12.00;48.70;;;;;;5068850;28;20617;-89
2022/03/22 10:11:57;;;;;;;17.37;13.27;;;11.90;55.60;;;;;;5068515;28;20614;-87
2022/03/22 10:14:34;;;;;;;18.43;15.00;;;12.10;49.60;;;;;;5068942;28;20661;-87
2022/03/22 10:17:09;;;;;;;19.13;15.90;;;12.20;49.30;;;;;;5059451;28;21237;-87
2022/03/22 10:19:42;;;;;;;22.63;15.93;;;12.50;54.50;;;;;;5058818;28;21213;-87
2022/03/22 10:22:10;;;;;;;21.83;13.47;;;12.20;48.60;;;;;;5061675;28;21242;-87
2022/03/22 10:24:44;;;;;;;17.00;14.53;;;12.60;54.50;;;;;;5052400;28;21293;-87
2022/03/22 10:27:21;;;;;;;20.17;15.10;;;12.40;48.20;;;;;;5059638;28;20960;-87
2022/03/22 10:29:48;;;;;;;17.60;14.57;;;12.70;54.70;;;;;;5062365;28;20724;-87
2022/03/22 10:32:15;;;;;;;23.10;14.83;;;12.20;54.80;;;;;;5068644;28;20690;-88
2022/03/22 10:34:43;;;;;;;18.30;15.00;;;12.60;48.30;;;;;;5067524;28;20727;-86
2022/03/22 10:37:10;;;;;;;18.53;14.87;;;12.50;55.30;;;;;;5067177;28;20724;-89
2022/03/22 10:39:41;;;;;;;18.53;15.43;;;12.70;47.80;;;;;;5067818;28;20683;-89
2022/03/22 10:42:10;;;;;;;19.13;15.20;;;12.60;48.10;;;;;;5068501;28;21187;-89
2022/03/22 10:44:38;;;;;;;19.07;14.53;;;12.80;47.30;;;;;;5061308;28;21717;-90
2022/03/22 10:47:07;;;;;;;17.70;15.67;;;12.90;46.90;;;;;;5046738;28;20619;-86
2022/03/22 10:49:35;;;;;;;18.23;14.97;;;12.90;47.50;;;;;;5063190;28;20630;-88
2022/03/22 10:52:02;;;;;;;20.37;15.20;;;12.90;47.60;;;;;;5051306;28;20669;-87
2022/03/22 10:54:29;;;;;;;19.70;15.93;;;12.90;47.70;;;;;;5053856;28;20657;-87
2022/03/22 10:56:57;;;;;;;20.73;15.87;;;13.00;47.20;;;;;;5066672;28;20618;-88
2022/03/22 10:59:28;;;;;;;18.70;14.60;;;13.10;46.50;;;;;;5067613;28;20683;-90
2022/03/22 11:01:56;;;;;;;24.23;16.20;;;13.20;45.80;;;;;;5069893;28;21224;-89
2022/03/22 11:04:27;;;;;;;18.80;15.23;;;13.30;46.30;;;;;;5064615;28;20645;-88
2022/03/22 11:07:05;;;;;;;21.00;14.47;;;13.20;45.00;;;;;;5061620;28;20646;-89
2022/03/22 11:09:33;;;;;;;26.67;14.87;;;13.40;51.90;;;;;;5060219;28;20642;-89
2022/03/22 11:12:01;;;;;;;15.80;14.00;;;;;;;;;;5069557;28;20647;-86
2022/03/22 11:14:34;;;;;;;20.03;15.73;;;13.80;52.80;;;;;;5068170;28;21297;-86
2022/03/22 11:17:06;;;;;;;21.27;16.87;;;13.90;45.80;;;;;;5071082;28;20976;-87
2022/03/22 11:19:34;;;;;;;18.20;15.23;;;;;;;;;;5072002;28;20972;-88
2022/03/22 11:22:13;;;;;;;23.30;18.40;;;13.70;46.00;;;;;;5071042;28;20706;-87
2022/03/22 11:24:40;;;;;;;24.60;17.13;;;;;;;;;;5059876;28;20627;-87
2022/03/22 11:27:08;;;;;;;23.67;17.67;;;13.80;47.40;;;;;;5062011;28;20633;-87
2022/03/22 11:29:40;;;;;;;30.20;18.33;;;13.80;47.10;;;;;;5063692;28;20614;-87
2022/03/22 11:34:54;;;;;;;18.53;16.20;;;14.00;53.30;;;;;;5069484;28;20821;-87
2022/03/22 11:37:30;;;;;;;20.20;15.87;;;13.90;47.30;;;;;;5062893;28;20632;-87
2022/03/22 11:42:52;;;;;;;24.20;18.43;;;13.90;51.90;;;;;;5055185;28;20617;-88
2022/03/22 11:45:21;;;;;;;19.73;16.00;;;14.10;47.00;;;;;;5069516;28;20631;-88
2022/03/22 11:47:49;;;;;;;24.80;17.57;;;14.00;46.60;;;;;;5068945;28;20628;-87
2022/03/22 11:50:20;;;;;;;21.87;17.47;;;13.90;46.90;;;;;;5060383;28;20622;-87
2022/03/22 11:52:50;;;;;;;23.17;16.73;;;13.80;47.20;;;;;;5063504;28;20696;-87
2022/03/22 11:55:19;;;;;;;20.20;16.07;;;13.80;46.20;;;;;;5053506;28;20659;-88
2022/03/22 11:57:48;;;;;;;19.83;16.23;;;13.90;45.90;;;;;;5067020;28;20618;-87
2022/03/22 12:00:17;;;;;;;16.27;14.60;;;13.90;46.10;;;;;;5070591;28;20644;-88
2022/03/22 12:02:51;;;;;;;20.07;15.13;;;14.00;45.90;;;;;;5072360;28;20610;-88
2022/03/22 12:05:19;;;;;;;19.60;15.87;;;14.10;51.40;;;;;;5064784;28;21214;-87
2022/03/22 12:07:47;;;;;;;22.63;17.10;;;14.10;47.00;;;;;;5068086;28;20611;-88
2022/03/22 12:10:16;;;;;;;21.60;17.73;;;14.20;46.00;;;;;;5069698;28;20618;-87
2022/03/22 12:12:49;;;;;;;19.50;15.90;;;14.30;45.50;;;;;;5069309;28;20989;-87
2022/03/22 12:15:17;;;;;;;17.53;14.60;;;14.30;45.20;;;;;;5070032;28;20664;-88
2022/03/22 12:17:46;;;;;;;16.60;14.60;;;14.30;45.10;;;;;;5071013;28;20629;-87
2022/03/22 12:20:14;;;;;;;23.63;16.20;;;14.40;43.70;;;;;;5068983;28;20672;-88
2022/03/22 12:22:45;;;;;;;20.93;14.90;;;14.40;42.70;;;;;;5064470;28;20650;-88
2022/03/22 12:25:15;;;;;;;18.50;14.37;;;14.60;43.90;;;;;;5070678;28;20632;-88
2022/03/22 12:27:53;;;;;;;18.37;13.97;;;14.30;43.70;;;;;;5070555;28;20624;-87
2022/03/22 12:30:21;;;;;;;21.10;14.53;;;14.40;42.50;;;;;;5064164;28;21029;-88
2022/03/22 12:32:55;;;;;;;15.90;13.17;;;14.90;43.50;;;;;;5056888;28;20621;-88
2022/03/22 12:35:25;;;;;;;20.43;14.90;;;14.40;48.20;;;;;;5067854;28;20739;-88
2022/03/22 12:37:57;;;;;;;16.47;14.10;;;14.60;42.00;;;;;;5066981;28;20755;-87
2022/03/22 12:40:24;;;;;;;17.13;13.53;;;14.70;42.80;;;;;;5069426;28;20616;-88
2022/03/22 12:42:56;;;;;;;21.83;16.40;;;14.70;40.80;;;;;;5070204;28;21165;-88
2022/03/22 12:45:26;;;;;;;17.73;14.10;;;14.30;46.80;;;;;;5055126;28;20612;-89
2022/03/22 12:47:56;;;;;;;21.33;14.70;;;14.80;40.80;;;;;;5054247;28;20625;-88
2022/03/22 12:50:27;;;;;;;19.60;16.47;;;14.80;41.10;;;;;;5069359;28;20664;-88
2022/03/22 12:52:55;;;;;;;25.43;16.00;;;14.90;41.60;;;;;;5071513;28;20613;-88
2022/03/22 12:55:27;;;;;;;23.03;15.87;;;15.30;48.20;;;;;;5070292;28;20692;-88
2022/03/22 12:57:56;;;;;;;18.63;13.67;;;15.10;47.20;;;;;;5068384;28;20766;-89
2022/03/22 13:00:36;;;;;;;22.47;14.07;;;15.00;40.50;;;;;;5068896;28;20630;-88
2022/03/22 13:03:09;;;;;;;19.27;14.40;;;15.20;41.50;;;;;;5068047;28;20696;-88
2022/03/22 13:05:46;;;;;;;19.03;14.10;;;15.10;42.00;;;;;;5054595;28;20668;-88
2022/03/22 13:08:16;;;;;;;21.80;15.03;;;15.20;47.20;;;;;;5069326;28;20609;-89
2022/03/22 13:16:24;;;;;;;21.13;16.30;;;15.20;47.80;;;;;;5063743;28;20699;-88
2022/03/22 13:18:54;;;;;;;21.33;15.90;;;15.40;41.30;;;;;;5070755;28;20633;-88
2022/03/22 13:21:25;;;;;;;20.03;15.77;;;15.30;43.00;;;;;;5069633;28;20673;-87
2022/03/22 13:24:01;;;;;;;22.93;15.70;;;15.20;48.30;;;;;;5070467;28;21229;-88
2022/03/22 13:26:28;;;;;;;23.73;17.20;;;;;;;;;;5068675;28;20628;-88
2022/03/22 13:28:55;;;;;;;23.20;15.87;;;15.60;41.60;;;;;;5070140;28;20624;-87